Аэропорт: Гродно. Гродно

ICAO: UMMG

METAR:
2019-11-21 09:30:00
UMMG 210930Z 11007G10MPS 9999 OVC010 03/01 Q1028 R17/CLRD// NOSIG
METAR:
2019-11-21 08:10:00
TAF UMMG 210810Z 2109/2118 11010G15MPS 9999 BKN008 BKN015 TEMPO 2109/2116 12012G17MPS